sensor_id;sensor_type;location;lat;lon;timestamp;pressure;altitude;pressure_sealevel;temperature;humidity
50650;BME280;36621;60.058;30.346;2023-05-09T00:00:03;102610.50;;;7.99;39.66
50650;BME280;36621;60.058;30.346;2023-05-09T00:07:39;102492.91;;;7.23;40.26
50650;BME280;36621;60.058;30.346;2023-05-09T00:15:11;102470.50;;;6.94;40.91
50650;BME280;36621;60.058;30.346;2023-05-09T00:22:44;102603.38;;;7.85;42.02
50650;BME280;36621;60.058;30.346;2023-05-09T00:30:20;102389.84;;;6.55;42.00
50650;BME280;36621;60.058;30.346;2023-05-09T00:38:03;102375.38;;;6.41;43.29
50650;BME280;36621;60.058;30.346;2023-05-09T00:45:35;102590.63;;;7.72;44.29
50650;BME280;36621;60.058;30.346;2023-05-09T00:53:09;102586.84;;;7.66;44.13
50650;BME280;36621;60.058;30.346;2023-05-09T01:00:41;102588.72;;;7.59;44.16
50650;BME280;36621;60.058;30.346;2023-05-09T01:08:22;102533.28;;;7.33;43.27
50650;BME280;36621;60.058;30.346;2023-05-09T01:16:05;102492.69;;;7.11;44.04
50650;BME280;36621;60.058;30.346;2023-05-09T01:24:07;102604.00;;;7.87;43.08
50650;BME280;36621;60.058;30.346;2023-05-09T01:31:45;102608.59;;;7.66;44.25
50650;BME280;36621;60.058;30.346;2023-05-09T01:39:20;102500.59;;;6.86;43.98
50650;BME280;36621;60.058;30.346;2023-05-09T01:46:59;102532.41;;;7.12;43.32
50650;BME280;36621;60.058;30.346;2023-05-09T01:54:42;102518.41;;;7.16;42.97
50650;BME280;36621;60.058;30.346;2023-05-09T02:02:16;102608.59;;;7.66;42.90
50650;BME280;36621;60.058;30.346;2023-05-09T02:09:49;102608.59;;;7.66;42.89
50650;BME280;36621;60.058;30.346;2023-05-09T02:17:26;102605.25;;;7.84;42.31
50650;BME280;36621;60.058;30.346;2023-05-09T02:25:01;102549.84;;;7.58;42.14
50650;BME280;36621;60.058;30.346;2023-05-09T02:32:38;102606.50;;;8.02;42.59
50650;BME280;36621;60.058;30.346;2023-05-09T02:40:10;102513.66;;;7.51;41.87
50650;BME280;36621;60.058;30.346;2023-05-09T02:47:43;102568.84;;;8.05;41.29
50650;BME280;36621;60.058;30.346;2023-05-09T02:55:15;102606.06;;;8.38;41.57
50650;BME280;36621;60.058;30.346;2023-05-09T03:02:50;102604.00;;;8.47;41.10
50650;BME280;36621;60.058;30.346;2023-05-09T03:10:24;102596.44;;;8.49;40.59
50650;BME280;36621;60.058;30.346;2023-05-09T03:17:59;102594.09;;;8.59;40.57
50650;BME280;36621;60.058;30.346;2023-05-09T03:25:33;102603.50;;;8.77;40.52
50650;BME280;36621;60.058;30.346;2023-05-09T03:33:07;102555.09;;;8.72;40.06
50650;BME280;36621;60.058;30.346;2023-05-09T03:40:40;102547.19;;;9.09;39.36
50650;BME280;36621;60.058;30.346;2023-05-09T03:48:16;102589.19;;;9.65;38.91
50650;BME280;36621;60.058;30.346;2023-05-09T03:55:55;102603.97;;;9.76;37.82
50650;BME280;36621;60.058;30.346;2023-05-09T04:03:33;102556.75;;;10.01;37.60
50650;BME280;36621;60.058;30.346;2023-05-09T04:11:06;102546.81;;;11.18;35.12
50650;BME280;36621;60.058;30.346;2023-05-09T04:18:43;102493.31;;;12.64;33.82
50650;BME280;36621;60.058;30.346;2023-05-09T04:26:15;102610.53;;;16.26;28.36
50650;BME280;36621;60.058;30.346;2023-05-09T04:33:53;102619.31;;;17.34;27.28
50650;BME280;36621;60.058;30.346;2023-05-09T04:41:27;102578.22;;;18.90;25.36
50650;BME280;36621;60.058;30.346;2023-05-09T04:49:01;102587.28;;;21.83;21.57
50650;BME280;36621;60.058;30.346;2023-05-09T04:56:33;102615.72;;;23.92;19.40
50650;BME280;36621;60.058;30.346;2023-05-09T05:04:07;102576.34;;;24.91;18.44
50650;BME280;36621;60.058;30.346;2023-05-09T05:11:40;102599.84;;;25.87;17.52
50650;BME280;36621;60.058;30.346;2023-05-09T05:19:14;102604.63;;;26.81;16.64
50650;BME280;36621;60.058;30.346;2023-05-09T05:26:47;102586.97;;;26.80;16.40
50650;BME280;36621;60.058;30.346;2023-05-09T05:34:20;102611.19;;;28.28;14.80
50650;BME280;36621;60.058;30.346;2023-05-09T05:41:54;102592.25;;;28.24;14.29
50650;BME280;36621;60.058;30.346;2023-05-09T05:49:29;102602.06;;;28.18;14.60
50650;BME280;36621;60.058;30.346;2023-05-09T05:57:03;102597.50;;;26.15;16.12
50650;BME280;36621;60.058;30.346;2023-05-09T06:05:05;102472.03;;;23.40;17.21
50650;BME280;36621;60.058;30.346;2023-05-09T06:12:45;102549.81;;;18.69;22.84
50650;BME280;36621;60.058;30.346;2023-05-09T06:20:21;102360.75;;;15.94;24.90
50650;BME280;36621;60.058;30.346;2023-05-09T06:28:00;102588.06;;;16.44;24.47
50650;BME280;36621;60.058;30.346;2023-05-09T06:35:44;102559.63;;;15.96;25.79
50650;BME280;36621;60.058;30.346;2023-05-09T06:43:33;102445.63;;;14.62;26.00
50650;BME280;36621;60.058;30.346;2023-05-09T06:51:13;102579.75;;;15.37;26.75
50650;BME280;36621;60.058;30.346;2023-05-09T06:58:46;102546.19;;;15.07;26.90
50650;BME280;36621;60.058;30.346;2023-05-09T07:06:19;102538.53;;;15.09;27.02
50650;BME280;36621;60.058;30.346;2023-05-09T07:14:01;102510.25;;;14.92;26.59
50650;BME280;36621;60.058;30.346;2023-05-09T07:21:34;102533.63;;;14.89;26.61
50650;BME280;36621;60.058;30.346;2023-05-09T07:29:21;102468.09;;;14.59;26.28
50650;BME280;36621;60.058;30.346;2023-05-09T07:37:04;102554.75;;;15.11;26.45
50650;BME280;36621;60.058;30.346;2023-05-09T07:44:36;102569.44;;;15.22;26.78
50650;BME280;36621;60.058;30.346;2023-05-09T07:52:11;102558.88;;;15.14;26.13
50650;BME280;36621;60.058;30.346;2023-05-09T07:59:44;102425.34;;;14.24;25.18
50650;BME280;36621;60.058;30.346;2023-05-09T08:07:17;102484.09;;;14.62;25.89
50650;BME280;36621;60.058;30.346;2023-05-09T08:14:49;102530.81;;;14.84;26.05
50650;BME280;36621;60.058;30.346;2023-05-09T08:22:23;102446.50;;;14.46;26.01
50650;BME280;36621;60.058;30.346;2023-05-09T08:29:56;102518.16;;;15.10;25.64
50650;BME280;36621;60.058;30.346;2023-05-09T08:37:29;102515.97;;;15.13;25.00
50650;BME280;36621;60.058;30.346;2023-05-09T08:45:05;102487.75;;;15.22;25.93
50650;BME280;36621;60.058;30.346;2023-05-09T08:52:38;102480.13;;;15.35;25.14
50650;BME280;36621;60.058;30.346;2023-05-09T09:00:11;102483.75;;;15.40;24.83
50650;BME280;36621;60.058;30.346;2023-05-09T09:07:45;102498.41;;;15.46;24.63
50650;BME280;36621;60.058;30.346;2023-05-09T09:15:19;102483.75;;;15.40;24.96
50650;BME280;36621;60.058;30.346;2023-05-09T09:22:58;102460.69;;;15.46;25.80
50650;BME280;36621;60.058;30.346;2023-05-09T09:30:34;102461.06;;;15.60;25.03
50650;BME280;36621;60.058;30.346;2023-05-09T09:38:17;102474.25;;;15.58;24.44
50650;BME280;36621;60.058;30.346;2023-05-09T09:45:50;102487.53;;;15.67;25.15
50650;BME280;36621;60.058;30.346;2023-05-09T09:53:25;102486.19;;;15.69;23.76
50650;BME280;36621;60.058;30.346;2023-05-09T10:01:04;102462.63;;;15.51;24.74
50650;BME280;36621;60.058;30.346;2023-05-09T10:08:37;102481.13;;;15.56;25.39
50650;BME280;36621;60.058;30.346;2023-05-09T10:16:10;102470.41;;;15.59;24.62
50650;BME280;36621;60.058;30.346;2023-05-09T10:23:50;102386.38;;;15.09;24.66
50650;BME280;36621;60.058;30.346;2023-05-09T10:31:25;102458.19;;;15.45;25.37
50650;BME280;36621;60.058;30.346;2023-05-09T10:38:59;102451.25;;;15.37;25.19
50650;BME280;36621;60.058;30.346;2023-05-09T10:46:32;102417.22;;;15.11;25.56
50650;BME280;36621;60.058;30.346;2023-05-09T10:54:13;102366.84;;;15.05;25.85
50650;BME280;36621;60.058;30.346;2023-05-09T11:01:56;102427.22;;;15.60;25.97
50650;BME280;36621;60.058;30.346;2023-05-09T11:09:33;102435.31;;;15.39;25.51
50650;BME280;36621;60.058;30.346;2023-05-09T11:17:13;102422.53;;;15.23;26.26
50650;BME280;36621;60.058;30.346;2023-05-09T11:24:47;102439.66;;;15.30;26.54
50650;BME280;36621;60.058;30.346;2023-05-09T11:32:21;102383.75;;;14.92;25.63
50650;BME280;36621;60.058;30.346;2023-05-09T11:40:00;102422.00;;;15.26;25.86
50650;BME280;36621;60.058;30.346;2023-05-09T11:47:36;102342.41;;;14.76;25.68
50650;BME280;36621;60.058;30.346;2023-05-09T11:55:11;102382.72;;;15.36;23.18
50650;BME280;36621;60.058;30.346;2023-05-09T12:02:43;102404.66;;;15.63;23.16
50650;BME280;36621;60.058;30.346;2023-05-09T12:10:20;102381.38;;;15.81;23.05
50650;BME280;36621;60.058;30.346;2023-05-09T12:18:03;102324.91;;;15.78;23.32
50650;BME280;36621;60.058;30.346;2023-05-09T12:25:46;102336.50;;;15.86;23.59
50650;BME280;36621;60.058;30.346;2023-05-09T12:33:19;102357.50;;;16.02;22.69
50650;BME280;36621;60.058;30.346;2023-05-09T12:41:00;102349.25;;;16.18;22.72
50650;BME280;36621;60.058;30.346;2023-05-09T12:48:36;102325.97;;;15.77;22.48
50650;BME280;36621;60.058;30.346;2023-05-09T12:56:13;102324.94;;;15.89;22.83
50650;BME280;36621;60.058;30.346;2023-05-09T13:03:50;102304.56;;;15.85;22.47
50650;BME280;36621;60.058;30.346;2023-05-09T13:11:24;102325.28;;;16.08;21.38
50650;BME280;36621;60.058;30.346;2023-05-09T13:18:57;102233.66;;;15.59;21.56
50650;BME280;36621;60.058;30.346;2023-05-09T13:26:32;102289.47;;;16.08;20.22
50650;BME280;36621;60.058;30.346;2023-05-09T13:34:04;102290.84;;;16.05;18.57
50650;BME280;36621;60.058;30.346;2023-05-09T13:41:37;102267.84;;;15.69;18.18
50650;BME280;36621;60.058;30.346;2023-05-09T13:49:09;102293.50;;;15.79;18.77
50650;BME280;36621;60.058;30.346;2023-05-09T13:56:42;102285.81;;;15.82;19.23
50650;BME280;36621;60.058;30.346;2023-05-09T14:04:14;102281.06;;;15.77;19.04
50650;BME280;36621;60.058;30.346;2023-05-09T14:11:47;102260.78;;;15.83;18.01
50650;BME280;36621;60.058;30.346;2023-05-09T14:19:21;102269.63;;;16.01;17.56
50650;BME280;36621;60.058;30.346;2023-05-09T14:26:54;102266.03;;;16.05;16.88
50650;BME280;36621;60.058;30.346;2023-05-09T14:34:26;102261.63;;;15.99;17.25
50650;BME280;36621;60.058;30.346;2023-05-09T14:41:59;102242.06;;;15.95;16.34
50650;BME280;36621;60.058;30.346;2023-05-09T14:49:31;102227.44;;;15.79;16.31
50650;BME280;36621;60.058;30.346;2023-05-09T14:57:04;102242.06;;;16.16;16.35
50650;BME280;36621;60.058;30.346;2023-05-09T15:04:37;102242.06;;;16.16;17.38
50650;BME280;36621;60.058;30.346;2023-05-09T15:12:12;102231.59;;;16.13;17.88
50650;BME280;36621;60.058;30.346;2023-05-09T15:19:44;102209.81;;;15.91;19.37
50650;BME280;36621;60.058;30.346;2023-05-09T15:27:17;102218.66;;;15.98;19.28
50650;BME280;36621;60.058;30.346;2023-05-09T15:34:49;102212.56;;;15.96;20.39
50650;BME280;36621;60.058;30.346;2023-05-09T15:42:22;102194.41;;;15.90;20.28
50650;BME280;36621;60.058;30.346;2023-05-09T15:49:55;102175.88;;;15.65;20.52
50650;BME280;36621;60.058;30.346;2023-05-09T15:57:28;102169.00;;;15.72;21.25
50650;BME280;36621;60.058;30.346;2023-05-09T16:05:00;102079.72;;;15.22;21.17
50650;BME280;36621;60.058;30.346;2023-05-09T16:12:33;102165.19;;;15.89;21.75
50650;BME280;36621;60.058;30.346;2023-05-09T16:20:06;102144.81;;;15.79;21.92
50650;BME280;36621;60.058;30.346;2023-05-09T16:27:40;102160.28;;;16.06;21.81
50650;BME280;36621;60.058;30.346;2023-05-09T16:35:13;102090.25;;;15.61;21.78
50650;BME280;36621;60.058;30.346;2023-05-09T16:42:55;102145.94;;;16.04;21.77
50650;BME280;36621;60.058;30.346;2023-05-09T16:50:33;101940.38;;;14.54;22.15
50650;BME280;36621;60.058;30.346;2023-05-09T16:58:06;102148.34;;;15.70;22.86
50650;BME280;36621;60.058;30.346;2023-05-09T17:05:40;102149.50;;;15.79;22.03
50650;BME280;36621;60.058;30.346;2023-05-09T17:13:31;102123.28;;;15.56;22.92
50650;BME280;36621;60.058;30.346;2023-05-09T17:21:03;102140.00;;;15.34;23.02
50650;BME280;36621;60.058;30.346;2023-05-09T17:28:36;102142.97;;;15.11;22.46
50650;BME280;36621;60.058;30.346;2023-05-09T17:36:11;102130.53;;;14.99;22.94
50650;BME280;36621;60.058;30.346;2023-05-09T17:43:44;102112.03;;;14.79;22.19
50650;BME280;36621;60.058;30.346;2023-05-09T17:51:17;102074.16;;;14.43;23.66
50650;BME280;36621;60.058;30.346;2023-05-09T17:58:50;102082.31;;;14.33;23.94
50650;BME280;36621;60.058;30.346;2023-05-09T18:06:23;102128.25;;;14.37;23.98
50650;BME280;36621;60.058;30.346;2023-05-09T18:13:58;102126.63;;;14.41;24.56
50650;BME280;36621;60.058;30.346;2023-05-09T18:21:30;102137.78;;;14.30;24.77
50650;BME280;36621;60.058;30.346;2023-05-09T18:29:03;102144.06;;;14.20;25.65
50650;BME280;36621;60.058;30.346;2023-05-09T18:36:36;102151.13;;;14.11;25.55
50650;BME280;36621;60.058;30.346;2023-05-09T18:44:09;102113.75;;;13.77;25.39
50650;BME280;36621;60.058;30.346;2023-05-09T18:51:40;102151.13;;;13.78;25.65
50650;BME280;36621;60.058;30.346;2023-05-09T18:59:13;102146.88;;;13.65;26.13
50650;BME280;36621;60.058;30.346;2023-05-09T19:06:47;102101.34;;;13.20;25.90
50650;BME280;36621;60.058;30.346;2023-05-09T19:14:20;102151.75;;;13.36;25.83
50650;BME280;36621;60.058;30.346;2023-05-09T19:21:52;102079.44;;;12.76;26.03
50650;BME280;36621;60.058;30.346;2023-05-09T19:29:27;102142.31;;;13.05;26.09
50650;BME280;36621;60.058;30.346;2023-05-09T19:36:59;102145.41;;;12.91;26.33
50650;BME280;36621;60.058;30.346;2023-05-09T19:44:31;102143.91;;;12.78;27.20
50650;BME280;36621;60.058;30.346;2023-05-09T19:52:04;102111.31;;;12.43;27.97
50650;BME280;36621;60.058;30.346;2023-05-09T19:59:37;102140.59;;;12.59;28.09
50650;BME280;36621;60.058;30.346;2023-05-09T20:07:09;102094.50;;;12.17;28.77
50650;BME280;36621;60.058;30.346;2023-05-09T20:14:42;102134.16;;;12.31;29.92
50650;BME280;36621;60.058;30.346;2023-05-09T20:22:14;102109.59;;;12.03;30.06
50650;BME280;36621;60.058;30.346;2023-05-09T20:29:47;102129.44;;;12.10;30.35
50650;BME280;36621;60.058;30.346;2023-05-09T20:37:19;102123.91;;;12.05;31.45
50650;BME280;36621;60.058;30.346;2023-05-09T20:44:52;102090.00;;;11.77;31.65
50650;BME280;36621;60.058;30.346;2023-05-09T20:52:25;102067.09;;;11.49;32.55
50650;BME280;36621;60.058;30.346;2023-05-09T20:59:58;102119.03;;;11.78;32.42
50650;BME280;36621;60.058;30.346;2023-05-09T21:07:30;102126.22;;;11.67;33.27
50650;BME280;36621;60.058;30.346;2023-05-09T21:15:04;102135.25;;;11.68;33.76
50650;BME280;36621;60.058;30.346;2023-05-09T21:22:36;102132.97;;;11.47;33.39
50650;BME280;36621;60.058;30.346;2023-05-09T21:30:10;102109.22;;;11.36;32.86
50650;BME280;36621;60.058;30.346;2023-05-09T21:37:42;102130.88;;;11.38;33.89
50650;BME280;36621;60.058;30.346;2023-05-09T21:45:15;102091.31;;;11.00;34.09
50650;BME280;36621;60.058;30.346;2023-05-09T21:52:48;102129.28;;;11.13;35.01
50650;BME280;36621;60.058;30.346;2023-05-09T22:00:21;102118.44;;;10.89;36.37
50650;BME280;36621;60.058;30.346;2023-05-09T22:07:53;102135.53;;;10.73;36.78
50650;BME280;36621;60.058;30.346;2023-05-09T22:15:26;102110.88;;;10.56;36.98
50650;BME280;36621;60.058;30.346;2023-05-09T22:22:58;102101.72;;;10.38;36.73
50650;BME280;36621;60.058;30.346;2023-05-09T22:30:31;102100.97;;;10.31;37.19
50650;BME280;36621;60.058;30.346;2023-05-09T22:38:03;102126.78;;;10.35;37.36
50650;BME280;36621;60.058;30.346;2023-05-09T22:45:35;102124.00;;;10.23;37.17
50650;BME280;36621;60.058;30.346;2023-05-09T22:53:07;102115.69;;;10.06;36.89
50650;BME280;36621;60.058;30.346;2023-05-09T23:00:40;102079.00;;;9.79;37.26
50650;BME280;36621;60.058;30.346;2023-05-09T23:08:12;102132.28;;;9.93;36.79
50650;BME280;36621;60.058;30.346;2023-05-09T23:15:46;102102.34;;;9.74;36.96
50650;BME280;36621;60.058;30.346;2023-05-09T23:23:18;102124.66;;;9.83;37.78
50650;BME280;36621;60.058;30.346;2023-05-09T23:30:52;102123.09;;;9.76;38.68
50650;BME280;36621;60.058;30.346;2023-05-09T23:38:24;102124.72;;;9.65;37.05
50650;BME280;36621;60.058;30.346;2023-05-09T23:45:56;102124.59;;;9.60;40.03
50650;BME280;36621;60.058;30.346;2023-05-09T23:53:28;102130.06;;;9.60;39.83
